Time,TemperatureF,DewpointF,PressureIn,WindDirection,WindDirectionDegrees,WindSpeedMPH,WindSpeedGustMPH,Humidity,HourlyPrecipIn,Conditions,Clouds,dailyrainin,SoftwareType,DateUTC
2013-04-20 00:03:00,64.0,-99.9,-100.00,North,-999,-999.0,-999.0,-999,0.00,,,0.00,,2013-04-20 04:03:00,
2013-04-20 00:13:00,64.0,-99.9,-100.00,North,-999,-999.0,-999.0,-999,0.00,,,0.00,,2013-04-20 04:13:00,
2013-04-20 00:53:00,60.0,-99.9,-100.00,North,-999,-999.0,-999.0,-999,0.18,,,0.18,,2013-04-20 04:53:00,
2013-04-20 01:02:00,60.0,-99.9,-100.00,North,-999,-999.0,-999.0,-999,0.18,,,0.18,,2013-04-20 05:02:00,
2013-04-20 01:12:00,60.0,-99.9,-100.00,North,-999,-999.0,-999.0,-999,0.18,,,0.18,,2013-04-20 05:12:00,
2013-04-20 01:43:00,59.0,-99.9,-100.00,North,-999,-999.0,-999.0,-999,0.00,,,0.18,,2013-04-20 05:43:00,
2013-04-20 01:52:00,59.0,-99.9,-100.00,North,-999,-999.0,-999.0,-999,0.00,,,0.18,,2013-04-20 05:52:00,
2013-04-20 02:02:00,59.0,-99.9,-100.00,North,-999,-999.0,-999.0,-999,0.00,,,0.18,,2013-04-20 06:02:00,
2013-04-20 02:12:00,59.0,-99.9,-100.00,North,-999,-999.0,-999.0,-999,0.00,,,0.18,,2013-04-20 06:12:00,
2013-04-20 02:52:00,55.0,-99.9,-100.00,North,-999,-999.0,-999.0,-999,0.03,,,0.21,,2013-04-20 06:52:00,
2013-04-20 03:02:00,55.0,-99.9,-100.00,North,-999,-999.0,-999.0,-999,0.03,,,0.21,,2013-04-20 07:02:00,
2013-04-20 03:11:00,55.0,-99.9,-100.00,North,-999,-999.0,-999.0,-999,0.03,,,0.21,,2013-04-20 07:11:00,
2013-04-20 03:42:00,50.0,-99.9,-100.00,North,-999,-999.0,-999.0,-999,0.01,,,0.22,,2013-04-20 07:42:00,
2013-04-20 03:52:00,50.0,-99.9,-100.00,North,-999,-999.0,-999.0,-999,0.01,,,0.22,,2013-04-20 07:52:00,
2013-04-20 04:02:00,50.0,-99.9,-100.00,North,-999,-999.0,-999.0,-999,0.01,,,0.22,,2013-04-20 08:02:00,
2013-04-20 04:11:00,50.0,-99.9,-100.00,North,-999,-999.0,-999.0,-999,0.01,,,0.22,,2013-04-20 08:11:00,
2013-04-20 04:52:00,47.0,-99.9,-100.00,North,-999,-999.0,-999.0,-999,0.01,,,0.23,,2013-04-20 08:52:00,
2013-04-20 05:02:00,47.0,-99.9,-100.00,North,-999,-999.0,-999.0,-999,0.01,,,0.23,,2013-04-20 09:02:00,
2013-04-20 05:12:00,47.0,-99.9,-100.00,North,-999,-999.0,-999.0,-999,0.01,,,0.23,,2013-04-20 09:12:00,
2013-04-20 05:43:00,43.0,-99.9,-100.00,North,-999,-999.0,-999.0,-999,0.04,,,0.27,,2013-04-20 09:43:00,
2013-04-20 05:53:00,43.0,-99.9,-100.00,North,-999,-999.0,-999.0,-999,0.04,,,0.27,,2013-04-20 09:53:00,
2013-04-20 06:03:00,43.0,-99.9,-100.00,North,-999,-999.0,-999.0,-999,0.04,,,0.27,,2013-04-20 10:03:00,
2013-04-20 06:13:00,43.0,-99.9,-100.00,North,-999,-999.0,-999.0,-999,0.04,,,0.27,,2013-04-20 10:13:00,
2013-04-20 06:53:00,42.0,-99.9,-100.00,North,-999,-999.0,-999.0,-999,0.02,,,0.29,,2013-04-20 10:53:00,
2013-04-20 07:03:00,42.0,-99.9,-100.00,North,-999,-999.0,-999.0,-999,0.02,,,0.29,,2013-04-20 11:03:00,
2013-04-20 07:12:00,42.0,-99.9,-100.00,North,-999,-999.0,-999.0,-999,0.02,,,0.29,,2013-04-20 11:12:00,
2013-04-20 07:42:00,42.0,-99.9,-100.00,North,-999,-999.0,-999.0,-999,0.01,,,0.30,,2013-04-20 11:42:00,
2013-04-20 07:53:00,42.0,-99.9,-100.00,North,-999,-999.0,-999.0,-999,0.01,,,0.30,,2013-04-20 11:53:00,
2013-04-20 08:02:00,42.0,-99.9,-100.00,North,-999,-999.0,-999.0,-999,0.01,,,0.30,,2013-04-20 12:02:00,
2013-04-20 08:11:00,42.0,-99.9,-100.00,North,-999,-999.0,-999.0,-999,0.01,,,0.30,,2013-04-20 12:11:00,
2013-04-20 08:42:00,43.0,-99.9,-100.00,North,-999,-999.0,-999.0,-999,0.00,,,0.30,,2013-04-20 12:42:00,
2013-04-20 08:52:00,43.0,-99.9,-100.00,North,-999,-999.0,-999.0,-999,0.00,,,0.30,,2013-04-20 12:52:00,
2013-04-20 09:02:00,43.0,-99.9,-100.00,North,-999,-999.0,-999.0,-999,0.00,,,0.30,,2013-04-20 13:02:00,
2013-04-20 09:12:00,43.0,-99.9,-100.00,North,-999,-999.0,-999.0,-999,0.00,,,0.30,,2013-04-20 13:12:00,
2013-04-20 09:52:00,45.0,-99.9,-100.00,North,-999,-999.0,-999.0,-999,0.00,,,0.30,,2013-04-20 13:52:00,
2013-04-20 10:02:00,45.0,-99.9,-100.00,North,-999,-999.0,-999.0,-999,0.00,,,0.30,,2013-04-20 14:02:00,
2013-04-20 10:12:00,45.0,-99.9,-100.00,North,-999,-999.0,-999.0,-999,0.00,,,0.30,,2013-04-20 14:12:00,
2013-04-20 10:52:00,47.0,-99.9,-100.00,North,-999,-999.0,-999.0,-999,0.00,,,0.30,,2013-04-20 14:52:00,
2013-04-20 11:02:00,47.0,-99.9,-100.00,North,-999,-999.0,-999.0,-999,0.00,,,0.30,,2013-04-20 15:02:00,
2013-04-20 11:12:00,47.0,-99.9,-100.00,North,-999,-999.0,-999.0,-999,0.00,,,0.30,,2013-04-20 15:12:00,
2013-04-20 11:53:00,50.0,-99.9,-100.00,North,-999,-999.0,-999.0,-999,0.00,,,0.30,,2013-04-20 15:53:00,
2013-04-20 12:03:00,50.0,-99.9,-100.00,North,-999,-999.0,-999.0,-999,0.00,,,0.30,,2013-04-20 16:03:00,
2013-04-20 12:12:00,50.0,-99.9,-100.00,North,-999,-999.0,-999.0,-999,0.00,,,0.30,,2013-04-20 16:12:00,
2013-04-20 12:42:00,51.0,-99.9,-100.00,North,-999,-999.0,-999.0,-999,0.00,,,0.30,,2013-04-20 16:42:00,
2013-04-20 12:53:00,51.0,-99.9,-100.00,North,-999,-999.0,-999.0,-999,0.00,,,0.30,,2013-04-20 16:53:00,
2013-04-20 13:03:00,51.0,-99.9,-100.00,North,-999,-999.0,-999.0,-999,0.00,,,0.30,,2013-04-20 17:03:00,
2013-04-20 13:12:00,51.0,-99.9,-100.00,North,-999,-999.0,-999.0,-999,0.00,,,0.30,,2013-04-20 17:12:00,
2013-04-20 13:52:00,50.0,-99.9,-100.00,North,-999,-999.0,-999.0,-999,0.00,,,0.30,,2013-04-20 17:52:00,
2013-04-20 14:02:00,50.0,-99.9,-100.00,North,-999,-999.0,-999.0,-999,0.00,,,0.30,,2013-04-20 18:02:00,
2013-04-20 14:13:00,50.0,-99.9,-100.00,North,-999,-999.0,-999.0,-999,0.00,,,0.30,,2013-04-20 18:13:00,
2013-04-20 14:53:00,51.0,-99.9,-100.00,North,-999,-999.0,-999.0,-999,0.00,,,0.30,,2013-04-20 18:53:00,
2013-04-20 15:02:00,51.0,-99.9,-100.00,North,-999,-999.0,-999.0,-999,0.00,,,0.30,,2013-04-20 19:02:00,
2013-04-20 15:12:00,51.0,-99.9,-100.00,North,-999,-999.0,-999.0,-999,0.00,,,0.30,,2013-04-20 19:12:00,
2013-04-20 15:52:00,52.0,-99.9,-100.00,North,-999,-999.0,-999.0,-999,0.00,,,0.30,,2013-04-20 19:52:00,
2013-04-20 16:02:00,52.0,-99.9,-100.00,North,-999,-999.0,-999.0,-999,0.00,,,0.30,,2013-04-20 20:02:00,
2013-04-20 16:12:00,52.0,-99.9,-100.00,North,-999,-999.0,-999.0,-999,0.00,,,0.30,,2013-04-20 20:12:00,
2013-04-20 16:52:00,53.0,-99.9,-100.00,North,-999,-999.0,-999.0,-999,0.00,,,0.30,,2013-04-20 20:52:00,
2013-04-20 17:02:00,53.0,-99.9,-100.00,North,-999,-999.0,-999.0,-999,0.00,,,0.30,,2013-04-20 21:02:00,
2013-04-20 17:12:00,53.0,-99.9,-100.00,North,-999,-999.0,-999.0,-999,0.00,,,0.30,,2013-04-20 21:12:00,
2013-04-20 17:43:00,52.0,-99.9,-100.00,North,-999,-999.0,-999.0,-999,0.00,,,0.30,,2013-04-20 21:43:00,
2013-04-20 17:53:00,52.0,-99.9,-100.00,North,-999,-999.0,-999.0,-999,0.00,,,0.30,,2013-04-20 21:53:00,
2013-04-20 18:03:00,52.0,-99.9,-100.00,North,-999,-999.0,-999.0,-999,0.00,,,0.30,,2013-04-20 22:03:00,
2013-04-20 18:13:00,52.0,-99.9,-100.00,North,-999,-999.0,-999.0,-999,0.00,,,0.30,,2013-04-20 22:13:00,
2013-04-20 18:53:00,51.0,-99.9,-100.00,North,-999,-999.0,-999.0,-999,0.00,,,0.30,,2013-04-20 22:53:00,
2013-04-20 19:02:00,51.0,-99.9,-100.00,North,-999,-999.0,-999.0,-999,0.00,,,0.30,,2013-04-20 23:02:00,
2013-04-20 19:12:00,51.0,-99.9,-100.00,North,-999,-999.0,-999.0,-999,0.00,,,0.30,,2013-04-20 23:12:00,
2013-04-20 19:53:00,48.0,-99.9,-100.00,North,-999,-999.0,-999.0,-999,0.00,,,0.30,,2013-04-20 23:53:00,
2013-04-20 20:02:00,48.0,-99.9,-100.00,North,-999,-999.0,-999.0,-999,0.00,,,0.30,,2013-04-21 00:02:00,
2013-04-20 20:12:00,48.0,-99.9,-100.00,North,-999,-999.0,-999.0,-999,0.00,,,0.30,,2013-04-21 00:12:00,
2013-04-20 20:42:00,45.0,-99.9,-100.00,North,-999,-999.0,-999.0,-999,0.00,,,0.30,,2013-04-21 00:42:00,
2013-04-20 20:52:00,45.0,-99.9,-100.00,North,-999,-999.0,-999.0,-999,0.00,,,0.30,,2013-04-21 00:52:00,
2013-04-20 21:01:00,45.0,-99.9,-100.00,North,-999,-999.0,-999.0,-999,0.00,,,0.30,,2013-04-21 01:01:00,
2013-04-20 21:12:00,45.0,-99.9,-100.00,North,-999,-999.0,-999.0,-999,0.00,,,0.30,,2013-04-21 01:12:00,
2013-04-20 21:42:00,43.0,-99.9,-100.00,North,-999,-999.0,-999.0,-999,0.00,,,0.30,,2013-04-21 01:42:00,
2013-04-20 21:52:00,43.0,-99.9,-100.00,North,-999,-999.0,-999.0,-999,0.00,,,0.30,,2013-04-21 01:52:00,
2013-04-20 22:02:00,43.0,-99.9,-100.00,North,-999,-999.0,-999.0,-999,0.00,,,0.30,,2013-04-21 02:02:00,
2013-04-20 22:11:00,43.0,-99.9,-100.00,North,-999,-999.0,-999.0,-999,0.00,,,0.30,,2013-04-21 02:11:00,
2013-04-20 22:52:00,41.0,-99.9,-100.00,North,-999,-999.0,-999.0,-999,0.00,,,0.30,,2013-04-21 02:52:00,
2013-04-20 23:02:00,41.0,-99.9,-100.00,North,-999,-999.0,-999.0,-999,0.00,,,0.30,,2013-04-21 03:02:00,
2013-04-20 23:11:00,41.0,-99.9,-100.00,North,-999,-999.0,-999.0,-999,0.00,,,0.30,,2013-04-21 03:11:00,
2013-04-20 23:53:00,39.0,-99.9,-100.00,North,-999,-999.0,-999.0,-999,0.00,,,-99.99,,2013-04-21 03:53:00,